sensor_id;sensor_type;location;lat;lon;timestamp;P1;durP1;ratioP1;P2;durP2;ratioP2
53533;SDS011;39421;53.204;6.568;2023-07-20T00:01:23;4.70;;;2.20;;
53533;SDS011;39421;53.204;6.568;2023-07-20T00:03:50;4.95;;;2.08;;
53533;SDS011;39421;53.204;6.568;2023-07-20T00:06:26;4.20;;;2.10;;
53533;SDS011;39421;53.204;6.568;2023-07-20T00:08:55;4.33;;;2.00;;
53533;SDS011;39421;53.204;6.568;2023-07-20T00:11:25;4.53;;;2.20;;
53533;SDS011;39421;53.204;6.568;2023-07-20T00:13:51;3.97;;;2.10;;
53533;SDS011;39421;53.204;6.568;2023-07-20T00:16:17;4.65;;;2.30;;
53533;SDS011;39421;53.204;6.568;2023-07-20T00:18:43;4.50;;;2.30;;
53533;SDS011;39421;53.204;6.568;2023-07-20T00:21:10;4.88;;;2.38;;
53533;SDS011;39421;53.204;6.568;2023-07-20T00:23:36;5.10;;;2.10;;
53533;SDS011;39421;53.204;6.568;2023-07-20T00:26:02;4.50;;;2.10;;
53533;SDS011;39421;53.204;6.568;2023-07-20T00:28:28;5.00;;;2.10;;
53533;SDS011;39421;53.204;6.568;2023-07-20T00:30:54;4.57;;;2.10;;
53533;SDS011;39421;53.204;6.568;2023-07-20T00:33:20;4.17;;;2.10;;
53533;SDS011;39421;53.204;6.568;2023-07-20T00:35:47;6.10;;;2.30;;
53533;SDS011;39421;53.204;6.568;2023-07-20T00:38:13;4.03;;;2.00;;
53533;SDS011;39421;53.204;6.568;2023-07-20T00:40:39;4.88;;;2.00;;
53533;SDS011;39421;53.204;6.568;2023-07-20T00:43:06;5.38;;;2.45;;
53533;SDS011;39421;53.204;6.568;2023-07-20T00:45:32;4.82;;;2.55;;
53533;SDS011;39421;53.204;6.568;2023-07-20T00:47:58;5.18;;;2.17;;
53533;SDS011;39421;53.204;6.568;2023-07-20T00:50:25;5.22;;;2.20;;
53533;SDS011;39421;53.204;6.568;2023-07-20T00:52:52;4.70;;;2.13;;
53533;SDS011;39421;53.204;6.568;2023-07-20T00:55:18;4.40;;;2.00;;
53533;SDS011;39421;53.204;6.568;2023-07-20T00:57:44;4.20;;;2.00;;
53533;SDS011;39421;53.204;6.568;2023-07-20T01:00:11;4.23;;;1.93;;
53533;SDS011;39421;53.204;6.568;2023-07-20T01:02:37;4.87;;;1.90;;
53533;SDS011;39421;53.204;6.568;2023-07-20T01:05:04;5.00;;;2.20;;
53533;SDS011;39421;53.204;6.568;2023-07-20T01:07:35;4.28;;;1.98;;
53533;SDS011;39421;53.204;6.568;2023-07-20T01:12:31;5.65;;;2.25;;
53533;SDS011;39421;53.204;6.568;2023-07-20T01:14:58;5.30;;;2.70;;
53533;SDS011;39421;53.204;6.568;2023-07-20T01:17:25;4.93;;;2.42;;
53533;SDS011;39421;53.204;6.568;2023-07-20T01:19:51;4.70;;;2.20;;
53533;SDS011;39421;53.204;6.568;2023-07-20T01:27:16;5.10;;;2.20;;
53533;SDS011;39421;53.204;6.568;2023-07-20T01:32:14;4.37;;;2.20;;
53533;SDS011;39421;53.204;6.568;2023-07-20T01:34:43;4.90;;;2.05;;
53533;SDS011;39421;53.204;6.568;2023-07-20T01:37:10;5.22;;;2.30;;
53533;SDS011;39421;53.204;6.568;2023-07-20T01:39:37;4.73;;;2.20;;
53533;SDS011;39421;53.204;6.568;2023-07-20T01:42:04;4.68;;;2.22;;
53533;SDS011;39421;53.204;6.568;2023-07-20T01:44:30;5.10;;;2.40;;
53533;SDS011;39421;53.204;6.568;2023-07-20T01:46:57;4.43;;;2.22;;
53533;SDS011;39421;53.204;6.568;2023-07-20T01:49:23;5.30;;;2.40;;
53533;SDS011;39421;53.204;6.568;2023-07-20T01:51:49;5.22;;;2.22;;
53533;SDS011;39421;53.204;6.568;2023-07-20T01:54:15;5.17;;;2.40;;
53533;SDS011;39421;53.204;6.568;2023-07-20T01:56:41;5.10;;;2.45;;
53533;SDS011;39421;53.204;6.568;2023-07-20T01:59:07;5.03;;;2.60;;
53533;SDS011;39421;53.204;6.568;2023-07-20T02:01:34;5.17;;;2.37;;
53533;SDS011;39421;53.204;6.568;2023-07-20T02:04:00;5.28;;;2.40;;
53533;SDS011;39421;53.204;6.568;2023-07-20T02:06:26;4.80;;;2.50;;
53533;SDS011;39421;53.204;6.568;2023-07-20T02:08:52;5.60;;;2.47;;
53533;SDS011;39421;53.204;6.568;2023-07-20T02:11:18;5.57;;;2.67;;
53533;SDS011;39421;53.204;6.568;2023-07-20T02:13:44;6.23;;;2.87;;
53533;SDS011;39421;53.204;6.568;2023-07-20T02:16:10;5.63;;;2.53;;
53533;SDS011;39421;53.204;6.568;2023-07-20T02:18:36;6.00;;;2.60;;
53533;SDS011;39421;53.204;6.568;2023-07-20T02:21:03;4.47;;;2.50;;
53533;SDS011;39421;53.204;6.568;2023-07-20T02:23:29;5.00;;;2.50;;
53533;SDS011;39421;53.204;6.568;2023-07-20T02:25:55;5.30;;;2.40;;
53533;SDS011;39421;53.204;6.568;2023-07-20T02:28:21;4.30;;;2.42;;
53533;SDS011;39421;53.204;6.568;2023-07-20T02:30:48;6.40;;;3.38;;
53533;SDS011;39421;53.204;6.568;2023-07-20T02:33:15;6.20;;;3.00;;
53533;SDS011;39421;53.204;6.568;2023-07-20T02:35:41;4.63;;;2.33;;
53533;SDS011;39421;53.204;6.568;2023-07-20T02:38:07;5.75;;;2.35;;
53533;SDS011;39421;53.204;6.568;2023-07-20T02:40:33;4.90;;;2.50;;
53533;SDS011;39421;53.204;6.568;2023-07-20T02:42:59;4.37;;;2.30;;
53533;SDS011;39421;53.204;6.568;2023-07-20T02:45:26;4.25;;;2.40;;
53533;SDS011;39421;53.204;6.568;2023-07-20T02:47:52;4.32;;;2.30;;
53533;SDS011;39421;53.204;6.568;2023-07-20T02:50:18;6.35;;;2.58;;
53533;SDS011;39421;53.204;6.568;2023-07-20T02:52:44;5.60;;;2.70;;
53533;SDS011;39421;53.204;6.568;2023-07-20T02:55:10;5.45;;;2.72;;
53533;SDS011;39421;53.204;6.568;2023-07-20T02:57:36;6.70;;;2.88;;
53533;SDS011;39421;53.204;6.568;2023-07-20T03:00:03;5.73;;;3.00;;
53533;SDS011;39421;53.204;6.568;2023-07-20T03:02:31;4.97;;;2.60;;
53533;SDS011;39421;53.204;6.568;2023-07-20T03:04:57;5.55;;;2.60;;
53533;SDS011;39421;53.204;6.568;2023-07-20T03:07:24;6.63;;;3.05;;
53533;SDS011;39421;53.204;6.568;2023-07-20T03:09:50;4.97;;;2.65;;
53533;SDS011;39421;53.204;6.568;2023-07-20T03:12:16;5.50;;;2.80;;
53533;SDS011;39421;53.204;6.568;2023-07-20T03:14:42;5.47;;;2.67;;
53533;SDS011;39421;53.204;6.568;2023-07-20T03:17:08;5.63;;;2.50;;
53533;SDS011;39421;53.204;6.568;2023-07-20T03:19:34;4.85;;;2.70;;
53533;SDS011;39421;53.204;6.568;2023-07-20T03:22:00;5.53;;;2.90;;
53533;SDS011;39421;53.204;6.568;2023-07-20T03:24:27;6.68;;;2.60;;
53533;SDS011;39421;53.204;6.568;2023-07-20T03:26:53;5.60;;;2.70;;
53533;SDS011;39421;53.204;6.568;2023-07-20T03:29:19;6.15;;;2.63;;
53533;SDS011;39421;53.204;6.568;2023-07-20T03:31:45;6.43;;;3.17;;
53533;SDS011;39421;53.204;6.568;2023-07-20T03:34:11;6.50;;;2.72;;
53533;SDS011;39421;53.204;6.568;2023-07-20T03:36:38;5.25;;;2.50;;
53533;SDS011;39421;53.204;6.568;2023-07-20T03:39:04;6.65;;;2.70;;
53533;SDS011;39421;53.204;6.568;2023-07-20T03:41:30;6.30;;;3.13;;
53533;SDS011;39421;53.204;6.568;2023-07-20T03:43:56;4.77;;;2.60;;
53533;SDS011;39421;53.204;6.568;2023-07-20T03:46:23;4.55;;;2.20;;
53533;SDS011;39421;53.204;6.568;2023-07-20T03:48:49;5.15;;;2.53;;
53533;SDS011;39421;53.204;6.568;2023-07-20T03:51:15;4.63;;;2.40;;
53533;SDS011;39421;53.204;6.568;2023-07-20T03:53:41;4.78;;;2.38;;
53533;SDS011;39421;53.204;6.568;2023-07-20T03:56:07;5.45;;;2.50;;
53533;SDS011;39421;53.204;6.568;2023-07-20T03:58:33;6.32;;;2.38;;
53533;SDS011;39421;53.204;6.568;2023-07-20T04:00:59;4.65;;;2.45;;
53533;SDS011;39421;53.204;6.568;2023-07-20T04:03:26;4.18;;;2.13;;
53533;SDS011;39421;53.204;6.568;2023-07-20T04:05:53;5.75;;;2.50;;
53533;SDS011;39421;53.204;6.568;2023-07-20T04:08:20;5.90;;;2.35;;
53533;SDS011;39421;53.204;6.568;2023-07-20T04:10:46;5.32;;;2.30;;
53533;SDS011;39421;53.204;6.568;2023-07-20T04:13:13;5.30;;;2.60;;
53533;SDS011;39421;53.204;6.568;2023-07-20T04:15:39;6.20;;;2.70;;
53533;SDS011;39421;53.204;6.568;2023-07-20T04:18:05;6.03;;;2.80;;
53533;SDS011;39421;53.204;6.568;2023-07-20T04:20:31;5.70;;;2.80;;
53533;SDS011;39421;53.204;6.568;2023-07-20T04:22:57;9.63;;;3.10;;
53533;SDS011;39421;53.204;6.568;2023-07-20T04:25:23;5.68;;;2.70;;
53533;SDS011;39421;53.204;6.568;2023-07-20T04:27:49;6.00;;;2.60;;
53533;SDS011;39421;53.204;6.568;2023-07-20T04:30:17;5.55;;;2.40;;
53533;SDS011;39421;53.204;6.568;2023-07-20T04:32:47;5.20;;;2.38;;
53533;SDS011;39421;53.204;6.568;2023-07-20T04:35:18;4.53;;;2.45;;
53533;SDS011;39421;53.204;6.568;2023-07-20T04:37:44;5.20;;;2.42;;
53533;SDS011;39421;53.204;6.568;2023-07-20T04:40:15;4.53;;;2.35;;
53533;SDS011;39421;53.204;6.568;2023-07-20T04:42:41;3.83;;;2.00;;
53533;SDS011;39421;53.204;6.568;2023-07-20T04:45:07;4.85;;;2.28;;
53533;SDS011;39421;53.204;6.568;2023-07-20T04:47:34;5.55;;;2.28;;
53533;SDS011;39421;53.204;6.568;2023-07-20T04:50:00;4.80;;;2.00;;
53533;SDS011;39421;53.204;6.568;2023-07-20T04:52:26;4.82;;;2.20;;
53533;SDS011;39421;53.204;6.568;2023-07-20T04:54:52;4.67;;;2.17;;
53533;SDS011;39421;53.204;6.568;2023-07-20T04:57:18;3.92;;;2.00;;
53533;SDS011;39421;53.204;6.568;2023-07-20T04:59:44;5.28;;;2.10;;
53533;SDS011;39421;53.204;6.568;2023-07-20T05:02:10;5.28;;;2.17;;
53533;SDS011;39421;53.204;6.568;2023-07-20T05:04:36;4.22;;;1.95;;
53533;SDS011;39421;53.204;6.568;2023-07-20T05:07:03;4.45;;;1.92;;
53533;SDS011;39421;53.204;6.568;2023-07-20T05:09:29;6.13;;;2.20;;
53533;SDS011;39421;53.204;6.568;2023-07-20T05:11:55;5.07;;;2.10;;
53533;SDS011;39421;53.204;6.568;2023-07-20T05:14:21;4.25;;;1.80;;
53533;SDS011;39421;53.204;6.568;2023-07-20T05:16:47;6.32;;;2.20;;
53533;SDS011;39421;53.204;6.568;2023-07-20T05:19:13;5.13;;;2.00;;
53533;SDS011;39421;53.204;6.568;2023-07-20T05:21:39;4.93;;;2.00;;
53533;SDS011;39421;53.204;6.568;2023-07-20T05:24:05;4.97;;;2.10;;
53533;SDS011;39421;53.204;6.568;2023-07-20T05:26:32;4.38;;;1.85;;
53533;SDS011;39421;53.204;6.568;2023-07-20T05:28:58;4.30;;;2.08;;
53533;SDS011;39421;53.204;6.568;2023-07-20T05:31:24;3.47;;;1.57;;
53533;SDS011;39421;53.204;6.568;2023-07-20T05:33:51;6.33;;;2.10;;
53533;SDS011;39421;53.204;6.568;2023-07-20T05:36:17;4.25;;;1.70;;
53533;SDS011;39421;53.204;6.568;2023-07-20T05:38:43;3.88;;;1.55;;
53533;SDS011;39421;53.204;6.568;2023-07-20T05:41:09;6.95;;;1.85;;
53533;SDS011;39421;53.204;6.568;2023-07-20T05:43:35;2.67;;;1.40;;
53533;SDS011;39421;53.204;6.568;2023-07-20T05:46:01;4.13;;;1.55;;
53533;SDS011;39421;53.204;6.568;2023-07-20T05:48:28;5.03;;;1.77;;
53533;SDS011;39421;53.204;6.568;2023-07-20T05:50:54;5.10;;;1.40;;
53533;SDS011;39421;53.204;6.568;2023-07-20T05:53:21;4.97;;;1.50;;
53533;SDS011;39421;53.204;6.568;2023-07-20T05:55:53;5.85;;;1.48;;
53533;SDS011;39421;53.204;6.568;2023-07-20T05:58:20;4.18;;;1.35;;
53533;SDS011;39421;53.204;6.568;2023-07-20T06:00:49;3.30;;;1.20;;
53533;SDS011;39421;53.204;6.568;2023-07-20T06:03:16;4.22;;;1.30;;
53533;SDS011;39421;53.204;6.568;2023-07-20T06:05:42;5.53;;;1.23;;
53533;SDS011;39421;53.204;6.568;2023-07-20T06:08:09;4.57;;;1.33;;
53533;SDS011;39421;53.204;6.568;2023-07-20T06:10:35;5.28;;;1.30;;
53533;SDS011;39421;53.204;6.568;2023-07-20T06:13:01;3.45;;;1.20;;
53533;SDS011;39421;53.204;6.568;2023-07-20T06:15:33;4.13;;;1.50;;
53533;SDS011;39421;53.204;6.568;2023-07-20T06:18:00;5.07;;;1.40;;
53533;SDS011;39421;53.204;6.568;2023-07-20T06:20:26;4.38;;;1.30;;
53533;SDS011;39421;53.204;6.568;2023-07-20T06:22:52;3.60;;;1.17;;
53533;SDS011;39421;53.204;6.568;2023-07-20T06:25:19;4.38;;;1.10;;
53533;SDS011;39421;53.204;6.568;2023-07-20T06:27:46;3.63;;;1.20;;
53533;SDS011;39421;53.204;6.568;2023-07-20T06:30:12;5.47;;;1.35;;
53533;SDS011;39421;53.204;6.568;2023-07-20T06:32:38;3.97;;;1.13;;
53533;SDS011;39421;53.204;6.568;2023-07-20T06:35:05;3.90;;;1.20;;
53533;SDS011;39421;53.204;6.568;2023-07-20T06:37:31;3.47;;;1.20;;
53533;SDS011;39421;53.204;6.568;2023-07-20T06:39:58;5.00;;;1.40;;
53533;SDS011;39421;53.204;6.568;2023-07-20T06:42:24;6.47;;;1.30;;
53533;SDS011;39421;53.204;6.568;2023-07-20T06:44:50;4.80;;;1.30;;
53533;SDS011;39421;53.204;6.568;2023-07-20T06:47:16;6.20;;;1.50;;
53533;SDS011;39421;53.204;6.568;2023-07-20T06:49:42;4.20;;;1.25;;
53533;SDS011;39421;53.204;6.568;2023-07-20T06:52:08;3.67;;;1.20;;
53533;SDS011;39421;53.204;6.568;2023-07-20T06:54:34;3.83;;;1.30;;
53533;SDS011;39421;53.204;6.568;2023-07-20T06:57:00;3.40;;;1.25;;
53533;SDS011;39421;53.204;6.568;2023-07-20T06:59:27;5.57;;;1.50;;
53533;SDS011;39421;53.204;6.568;2023-07-20T07:01:53;3.83;;;1.30;;
53533;SDS011;39421;53.204;6.568;2023-07-20T07:04:19;5.10;;;1.40;;
53533;SDS011;39421;53.204;6.568;2023-07-20T07:06:46;4.40;;;1.40;;
53533;SDS011;39421;53.204;6.568;2023-07-20T07:09:13;5.18;;;1.58;;
53533;SDS011;39421;53.204;6.568;2023-07-20T07:11:39;5.50;;;1.40;;
53533;SDS011;39421;53.204;6.568;2023-07-20T07:14:05;4.70;;;1.40;;
53533;SDS011;39421;53.204;6.568;2023-07-20T07:16:32;4.47;;;1.60;;
53533;SDS011;39421;53.204;6.568;2023-07-20T07:18:58;5.73;;;1.43;;
53533;SDS011;39421;53.204;6.568;2023-07-20T07:21:24;5.95;;;1.63;;
53533;SDS011;39421;53.204;6.568;2023-07-20T07:23:50;4.47;;;1.40;;
53533;SDS011;39421;53.204;6.568;2023-07-20T07:26:18;3.88;;;1.40;;
53533;SDS011;39421;53.204;6.568;2023-07-20T07:28:44;4.45;;;1.50;;
53533;SDS011;39421;53.204;6.568;2023-07-20T07:31:14;6.18;;;1.70;;
53533;SDS011;39421;53.204;6.568;2023-07-20T07:33:40;4.88;;;1.60;;
53533;SDS011;39421;53.204;6.568;2023-07-20T07:36:06;4.70;;;1.73;;
53533;SDS011;39421;53.204;6.568;2023-07-20T07:38:32;5.85;;;1.90;;
53533;SDS011;39421;53.204;6.568;2023-07-20T07:40:59;5.03;;;1.63;;
53533;SDS011;39421;53.204;6.568;2023-07-20T07:43:25;9.00;;;1.90;;
53533;SDS011;39421;53.204;6.568;2023-07-20T07:45:53;6.38;;;1.80;;
53533;SDS011;39421;53.204;6.568;2023-07-20T07:48:20;7.57;;;1.65;;
53533;SDS011;39421;53.204;6.568;2023-07-20T07:50:47;6.93;;;1.70;;
53533;SDS011;39421;53.204;6.568;2023-07-20T07:53:13;7.05;;;1.77;;
53533;SDS011;39421;53.204;6.568;2023-07-20T07:55:39;7.88;;;1.73;;
53533;SDS011;39421;53.204;6.568;2023-07-20T07:58:06;6.78;;;1.63;;
53533;SDS011;39421;53.204;6.568;2023-07-20T08:00:32;6.70;;;2.10;;
53533;SDS011;39421;53.204;6.568;2023-07-20T08:02:58;5.50;;;1.80;;
53533;SDS011;39421;53.204;6.568;2023-07-20T08:05:24;9.15;;;1.88;;
53533;SDS011;39421;53.204;6.568;2023-07-20T08:07:51;5.90;;;1.70;;
53533;SDS011;39421;53.204;6.568;2023-07-20T08:10:18;8.25;;;1.52;;
53533;SDS011;39421;53.204;6.568;2023-07-20T08:12:44;8.95;;;1.70;;
53533;SDS011;39421;53.204;6.568;2023-07-20T08:15:10;5.82;;;1.83;;
53533;SDS011;39421;53.204;6.568;2023-07-20T08:17:39;5.80;;;1.50;;
53533;SDS011;39421;53.204;6.568;2023-07-20T08:20:05;5.28;;;1.40;;
53533;SDS011;39421;53.204;6.568;2023-07-20T08:22:31;5.97;;;1.40;;
53533;SDS011;39421;53.204;6.568;2023-07-20T08:24:58;5.63;;;1.50;;
53533;SDS011;39421;53.204;6.568;2023-07-20T08:27:24;3.90;;;1.20;;
53533;SDS011;39421;53.204;6.568;2023-07-20T08:29:50;4.65;;;1.40;;
53533;SDS011;39421;53.204;6.568;2023-07-20T08:32:17;5.20;;;1.30;;
53533;SDS011;39421;53.204;6.568;2023-07-20T08:34:43;9.27;;;1.38;;
53533;SDS011;39421;53.204;6.568;2023-07-20T08:37:09;4.78;;;1.23;;
53533;SDS011;39421;53.204;6.568;2023-07-20T08:39:35;5.53;;;1.20;;
53533;SDS011;39421;53.204;6.568;2023-07-20T08:42:01;3.80;;;1.10;;
53533;SDS011;39421;53.204;6.568;2023-07-20T08:44:30;8.85;;;1.52;;
53533;SDS011;39421;53.204;6.568;2023-07-20T08:46:59;8.90;;;1.40;;
53533;SDS011;39421;53.204;6.568;2023-07-20T08:49:25;3.92;;;1.30;;
53533;SDS011;39421;53.204;6.568;2023-07-20T08:51:52;3.80;;;0.93;;
53533;SDS011;39421;53.204;6.568;2023-07-20T08:54:18;3.65;;;0.90;;
53533;SDS011;39421;53.204;6.568;2023-07-20T08:56:45;5.70;;;1.27;;
53533;SDS011;39421;53.204;6.568;2023-07-20T08:59:12;5.65;;;1.10;;
53533;SDS011;39421;53.204;6.568;2023-07-20T09:01:39;3.35;;;0.95;;
53533;SDS011;39421;53.204;6.568;2023-07-20T09:04:05;2.78;;;0.90;;
53533;SDS011;39421;53.204;6.568;2023-07-20T09:06:31;2.90;;;0.90;;
53533;SDS011;39421;53.204;6.568;2023-07-20T09:09:00;2.80;;;1.00;;
53533;SDS011;39421;53.204;6.568;2023-07-20T09:11:26;4.63;;;0.95;;
53533;SDS011;39421;53.204;6.568;2023-07-20T09:14:08;4.80;;;1.05;;
53533;SDS011;39421;53.204;6.568;2023-07-20T09:16:53;4.28;;;1.10;;
53533;SDS011;39421;53.204;6.568;2023-07-20T09:19:20;4.15;;;1.10;;
53533;SDS011;39421;53.204;6.568;2023-07-20T09:21:46;3.53;;;1.00;;
53533;SDS011;39421;53.204;6.568;2023-07-20T09:24:13;3.90;;;0.90;;
53533;SDS011;39421;53.204;6.568;2023-07-20T09:26:43;3.50;;;1.00;;
53533;SDS011;39421;53.204;6.568;2023-07-20T09:29:09;5.05;;;1.00;;
53533;SDS011;39421;53.204;6.568;2023-07-20T09:31:36;19.33;;;6.17;;
53533;SDS011;39421;53.204;6.568;2023-07-20T09:34:02;3.72;;;0.95;;
53533;SDS011;39421;53.204;6.568;2023-07-20T09:36:28;2.38;;;0.88;;
53533;SDS011;39421;53.204;6.568;2023-07-20T09:38:55;2.80;;;0.98;;
53533;SDS011;39421;53.204;6.568;2023-07-20T09:41:21;3.03;;;1.00;;
53533;SDS011;39421;53.204;6.568;2023-07-20T09:43:47;2.17;;;0.80;;
53533;SDS011;39421;53.204;6.568;2023-07-20T09:46:13;2.05;;;0.80;;
53533;SDS011;39421;53.204;6.568;2023-07-20T09:48:42;3.90;;;1.00;;
53533;SDS011;39421;53.204;6.568;2023-07-20T09:51:18;7.05;;;1.50;;
53533;SDS011;39421;53.204;6.568;2023-07-20T09:53:46;8.75;;;1.60;;
53533;SDS011;39421;53.204;6.568;2023-07-20T09:56:13;4.67;;;1.07;;
53533;SDS011;39421;53.204;6.568;2023-07-20T09:58:39;3.65;;;1.02;;
53533;SDS011;39421;53.204;6.568;2023-07-20T10:01:06;4.55;;;1.02;;
53533;SDS011;39421;53.204;6.568;2023-07-20T10:03:32;4.43;;;1.00;;
53533;SDS011;39421;53.204;6.568;2023-07-20T10:06:02;5.00;;;1.30;;
53533;SDS011;39421;53.204;6.568;2023-07-20T10:08:30;5.40;;;1.08;;
53533;SDS011;39421;53.204;6.568;2023-07-20T10:10:56;4.43;;;0.98;;
53533;SDS011;39421;53.204;6.568;2023-07-20T10:13:26;4.65;;;1.20;;
53533;SDS011;39421;53.204;6.568;2023-07-20T10:16:11;7.72;;;1.48;;
53533;SDS011;39421;53.204;6.568;2023-07-20T10:18:41;3.10;;;0.82;;
53533;SDS011;39421;53.204;6.568;2023-07-20T10:21:07;4.18;;;1.13;;
53533;SDS011;39421;53.204;6.568;2023-07-20T10:23:35;3.13;;;0.90;;
53533;SDS011;39421;53.204;6.568;2023-07-20T10:26:02;6.15;;;1.23;;
53533;SDS011;39421;53.204;6.568;2023-07-20T10:28:28;3.95;;;1.00;;
53533;SDS011;39421;53.204;6.568;2023-07-20T10:30:54;3.77;;;1.00;;
53533;SDS011;39421;53.204;6.568;2023-07-20T10:33:20;18.90;;;1.88;;
53533;SDS011;39421;53.204;6.568;2023-07-20T10:35:54;4.38;;;1.00;;
53533;SDS011;39421;53.204;6.568;2023-07-20T10:38:37;2.15;;;1.00;;
53533;SDS011;39421;53.204;6.568;2023-07-20T10:41:04;2.90;;;1.08;;
53533;SDS011;39421;53.204;6.568;2023-07-20T10:43:44;2.40;;;1.00;;
53533;SDS011;39421;53.204;6.568;2023-07-20T10:46:11;3.50;;;1.10;;
53533;SDS011;39421;53.204;6.568;2023-07-20T10:51:22;4.05;;;1.10;;
53533;SDS011;39421;53.204;6.568;2023-07-20T10:53:49;4.43;;;1.10;;
53533;SDS011;39421;53.204;6.568;2023-07-20T10:56:19;3.97;;;1.00;;
53533;SDS011;39421;53.204;6.568;2023-07-20T10:58:45;3.42;;;1.00;;
53533;SDS011;39421;53.204;6.568;2023-07-20T11:01:18;2.83;;;1.00;;
53533;SDS011;39421;53.204;6.568;2023-07-20T11:03:48;3.73;;;1.00;;
53533;SDS011;39421;53.204;6.568;2023-07-20T11:08:54;3.08;;;1.17;;
53533;SDS011;39421;53.204;6.568;2023-07-20T11:11:25;6.85;;;1.30;;
53533;SDS011;39421;53.204;6.568;2023-07-20T11:13:55;7.90;;;1.40;;
53533;SDS011;39421;53.204;6.568;2023-07-20T11:19:00;2.83;;;1.20;;
53533;SDS011;39421;53.204;6.568;2023-07-20T11:21:26;3.83;;;1.10;;
53533;SDS011;39421;53.204;6.568;2023-07-20T11:23:52;3.42;;;0.90;;
53533;SDS011;39421;53.204;6.568;2023-07-20T11:26:19;2.15;;;0.90;;
53533;SDS011;39421;53.204;6.568;2023-07-20T11:28:48;4.70;;;1.08;;
53533;SDS011;39421;53.204;6.568;2023-07-20T11:31:15;2.97;;;1.20;;
53533;SDS011;39421;53.204;6.568;2023-07-20T11:33:41;3.80;;;0.98;;
53533;SDS011;39421;53.204;6.568;2023-07-20T11:36:08;4.32;;;1.30;;
53533;SDS011;39421;53.204;6.568;2023-07-20T11:38:34;3.05;;;0.90;;
53533;SDS011;39421;53.204;6.568;2023-07-20T11:41:02;2.75;;;1.00;;
53533;SDS011;39421;53.204;6.568;2023-07-20T11:43:29;3.35;;;1.10;;
53533;SDS011;39421;53.204;6.568;2023-07-20T11:45:55;2.93;;;0.97;;
53533;SDS011;39421;53.204;6.568;2023-07-20T11:48:21;5.28;;;1.10;;
53533;SDS011;39421;53.204;6.568;2023-07-20T11:50:48;3.38;;;1.00;;
53533;SDS011;39421;53.204;6.568;2023-07-20T11:53:14;2.88;;;1.00;;
53533;SDS011;39421;53.204;6.568;2023-07-20T11:55:41;3.00;;;0.90;;
53533;SDS011;39421;53.204;6.568;2023-07-20T11:58:07;2.70;;;0.93;;
53533;SDS011;39421;53.204;6.568;2023-07-20T12:00:34;3.00;;;1.00;;
53533;SDS011;39421;53.204;6.568;2023-07-20T12:03:00;3.90;;;1.00;;
53533;SDS011;39421;53.204;6.568;2023-07-20T12:05:27;9.55;;;2.05;;
53533;SDS011;39421;53.204;6.568;2023-07-20T12:07:53;6.47;;;1.60;;
53533;SDS011;39421;53.204;6.568;2023-07-20T12:10:27;3.87;;;1.20;;
53533;SDS011;39421;53.204;6.568;2023-07-20T12:12:54;2.83;;;1.03;;
53533;SDS011;39421;53.204;6.568;2023-07-20T12:15:21;4.20;;;1.15;;
53533;SDS011;39421;53.204;6.568;2023-07-20T12:17:51;2.95;;;1.00;;
53533;SDS011;39421;53.204;6.568;2023-07-20T12:20:30;4.07;;;1.17;;
53533;SDS011;39421;53.204;6.568;2023-07-20T12:23:01;2.83;;;0.90;;
53533;SDS011;39421;53.204;6.568;2023-07-20T12:25:44;4.63;;;1.10;;
53533;SDS011;39421;53.204;6.568;2023-07-20T12:28:11;3.57;;;1.00;;
53533;SDS011;39421;53.204;6.568;2023-07-20T12:30:39;2.38;;;1.10;;
53533;SDS011;39421;53.204;6.568;2023-07-20T12:33:05;4.07;;;1.00;;
53533;SDS011;39421;53.204;6.568;2023-07-20T12:35:32;3.05;;;1.00;;
53533;SDS011;39421;53.204;6.568;2023-07-20T12:37:58;3.13;;;0.95;;
53533;SDS011;39421;53.204;6.568;2023-07-20T12:40:24;3.65;;;1.10;;
53533;SDS011;39421;53.204;6.568;2023-07-20T12:42:51;4.43;;;0.90;;
53533;SDS011;39421;53.204;6.568;2023-07-20T12:45:17;4.07;;;1.00;;
53533;SDS011;39421;53.204;6.568;2023-07-20T12:47:43;4.53;;;1.00;;
53533;SDS011;39421;53.204;6.568;2023-07-20T12:50:10;4.10;;;0.90;;
53533;SDS011;39421;53.204;6.568;2023-07-20T12:52:36;4.00;;;1.13;;
53533;SDS011;39421;53.204;6.568;2023-07-20T12:55:06;3.83;;;1.30;;
53533;SDS011;39421;53.204;6.568;2023-07-20T12:57:33;5.00;;;1.40;;
53533;SDS011;39421;53.204;6.568;2023-07-20T13:00:00;4.10;;;1.20;;
53533;SDS011;39421;53.204;6.568;2023-07-20T13:02:26;3.47;;;1.27;;
53533;SDS011;39421;53.204;6.568;2023-07-20T13:04:53;4.85;;;1.20;;
53533;SDS011;39421;53.204;6.568;2023-07-20T13:07:19;4.47;;;1.42;;
53533;SDS011;39421;53.204;6.568;2023-07-20T13:09:54;4.13;;;1.23;;
53533;SDS011;39421;53.204;6.568;2023-07-20T13:12:21;3.72;;;1.50;;
53533;SDS011;39421;53.204;6.568;2023-07-20T13:14:47;4.27;;;1.30;;
53533;SDS011;39421;53.204;6.568;2023-07-20T13:17:13;2.80;;;1.05;;
53533;SDS011;39421;53.204;6.568;2023-07-20T13:19:40;3.13;;;1.00;;
53533;SDS011;39421;53.204;6.568;2023-07-20T13:22:06;3.17;;;1.05;;
53533;SDS011;39421;53.204;6.568;2023-07-20T13:24:32;4.20;;;1.30;;
53533;SDS011;39421;53.204;6.568;2023-07-20T13:26:58;3.47;;;1.02;;
53533;SDS011;39421;53.204;6.568;2023-07-20T13:29:24;3.00;;;1.05;;
53533;SDS011;39421;53.204;6.568;2023-07-20T13:31:51;4.93;;;1.40;;
53533;SDS011;39421;53.204;6.568;2023-07-20T13:34:17;5.35;;;1.30;;
53533;SDS011;39421;53.204;6.568;2023-07-20T13:36:43;3.60;;;1.20;;
53533;SDS011;39421;53.204;6.568;2023-07-20T13:39:09;4.72;;;1.10;;
53533;SDS011;39421;53.204;6.568;2023-07-20T13:41:35;4.22;;;1.23;;
53533;SDS011;39421;53.204;6.568;2023-07-20T13:44:02;3.00;;;1.10;;
53533;SDS011;39421;53.204;6.568;2023-07-20T13:46:28;3.05;;;1.05;;
53533;SDS011;39421;53.204;6.568;2023-07-20T13:48:54;4.13;;;1.13;;
53533;SDS011;39421;53.204;6.568;2023-07-20T13:51:20;4.50;;;1.02;;
53533;SDS011;39421;53.204;6.568;2023-07-20T13:53:47;14.10;;;1.80;;
53533;SDS011;39421;53.204;6.568;2023-07-20T13:56:13;3.53;;;1.10;;
53533;SDS011;39421;53.204;6.568;2023-07-20T13:58:39;3.35;;;1.10;;
53533;SDS011;39421;53.204;6.568;2023-07-20T14:01:05;2.92;;;1.02;;
53533;SDS011;39421;53.204;6.568;2023-07-20T14:03:32;7.15;;;1.40;;
53533;SDS011;39421;53.204;6.568;2023-07-20T14:05:58;3.75;;;1.10;;
53533;SDS011;39421;53.204;6.568;2023-07-20T14:08:24;3.40;;;1.10;;
53533;SDS011;39421;53.204;6.568;2023-07-20T14:10:50;4.00;;;1.10;;
53533;SDS011;39421;53.204;6.568;2023-07-20T14:13:16;6.00;;;1.30;;
53533;SDS011;39421;53.204;6.568;2023-07-20T14:15:42;5.72;;;1.30;;
53533;SDS011;39421;53.204;6.568;2023-07-20T14:18:08;4.20;;;1.10;;
53533;SDS011;39421;53.204;6.568;2023-07-20T14:20:35;2.90;;;1.15;;
53533;SDS011;39421;53.204;6.568;2023-07-20T14:23:01;5.07;;;1.42;;
53533;SDS011;39421;53.204;6.568;2023-07-20T14:25:27;1.80;;;0.85;;
53533;SDS011;39421;53.204;6.568;2023-07-20T14:27:53;2.80;;;0.90;;
53533;SDS011;39421;53.204;6.568;2023-07-20T14:30:19;3.87;;;1.00;;
53533;SDS011;39421;53.204;6.568;2023-07-20T14:32:45;4.20;;;1.15;;
53533;SDS011;39421;53.204;6.568;2023-07-20T14:35:11;4.70;;;1.10;;
53533;SDS011;39421;53.204;6.568;2023-07-20T14:37:37;5.78;;;1.10;;
53533;SDS011;39421;53.204;6.568;2023-07-20T14:40:04;4.85;;;1.17;;
53533;SDS011;39421;53.204;6.568;2023-07-20T14:42:30;3.42;;;1.17;;
53533;SDS011;39421;53.204;6.568;2023-07-20T14:44:57;3.22;;;1.00;;
53533;SDS011;39421;53.204;6.568;2023-07-20T14:47:23;3.05;;;1.20;;
53533;SDS011;39421;53.204;6.568;2023-07-20T14:49:50;3.87;;;1.17;;
53533;SDS011;39421;53.204;6.568;2023-07-20T14:52:16;4.45;;;1.25;;
53533;SDS011;39421;53.204;6.568;2023-07-20T14:54:42;4.78;;;1.30;;
53533;SDS011;39421;53.204;6.568;2023-07-20T14:57:08;5.13;;;1.20;;
53533;SDS011;39421;53.204;6.568;2023-07-20T14:59:39;5.15;;;1.30;;
53533;SDS011;39421;53.204;6.568;2023-07-20T15:02:09;5.20;;;1.80;;
53533;SDS011;39421;53.204;6.568;2023-07-20T15:04:35;4.03;;;1.40;;